createdAt,value
2023-02-27T00:00:36.287Z,3.52
2023-02-27T00:03:44.753Z,3.57
2023-02-27T00:06:48.813Z,3.61
2023-02-27T00:09:53.790Z,2.57
2023-02-27T00:13:08.062Z,3.84
2023-02-27T00:16:13.024Z,3.59
2023-02-27T00:19:17.850Z,4.28
2023-02-27T00:22:21.597Z,3.85
2023-02-27T00:25:30.942Z,3.79
2023-02-27T00:28:34.992Z,3.79
2023-02-27T00:31:39.232Z,3.51
2023-02-27T00:34:43.146Z,3.41
2023-02-27T00:37:47.828Z,4.33
2023-02-27T00:40:52.266Z,1.32
2023-02-27T00:43:56.230Z,4.44
2023-02-27T00:47:00.676Z,4.58
2023-02-27T00:50:14.878Z,4.80
2023-02-27T00:53:18.961Z,4.57
2023-02-27T00:56:24.490Z,4.96
2023-02-27T00:59:29.307Z,4.88
2023-02-27T01:02:33.747Z,4.91
2023-02-27T01:05:48.056Z,5.23
2023-02-27T01:08:56.742Z,4.29
2023-02-27T01:12:01.816Z,4.71
2023-02-27T01:15:17.725Z,5.62
2023-02-27T01:18:28.684Z,4.24
2023-02-27T01:21:32.750Z,4.83
2023-02-27T01:24:48.518Z,4.89
2023-02-27T01:27:52.798Z,4.56
2023-02-27T01:30:56.799Z,3.78
2023-02-27T01:34:01.347Z,4.17
2023-02-27T01:37:05.906Z,4.56
2023-02-27T01:40:11.863Z,4.39
2023-02-27T01:43:23.365Z,4.53
2023-02-27T01:46:31.519Z,3.72
2023-02-27T01:49:35.619Z,3.73
2023-02-27T01:52:41.548Z,3.43
2023-02-27T01:55:48.927Z,3.02
2023-02-27T01:58:58.431Z,3.19
2023-02-27T02:02:20.600Z,3.38
2023-02-27T02:05:24.924Z,3.79
2023-02-27T02:08:32.326Z,3.85
2023-02-27T02:11:38.173Z,4.15
2023-02-27T02:14:42.374Z,3.42
2023-02-27T02:17:54.888Z,2.91
2023-02-27T02:21:06.763Z,2.19
2023-02-27T02:24:33.687Z,1.77
2023-02-27T02:27:50.499Z,1.58
2023-02-27T02:31:37.678Z,1.75
2023-02-27T02:35:12.548Z,2.91
2023-02-27T02:42:24.712Z,3.25
2023-02-27T02:45:39.336Z,3.36
2023-02-27T02:48:55.519Z,2.98
2023-02-27T02:52:17.355Z,2.80
2023-02-27T02:55:48.649Z,3.96
2023-02-27T02:59:08.087Z,3.43
2023-02-27T03:02:17.545Z,3.12
2023-02-27T03:05:36.716Z,2.24
2023-02-27T03:08:56.293Z,2.45
2023-02-27T03:12:02.939Z,3.31
2023-02-27T03:15:28.108Z,2.01
2023-02-27T03:18:46.024Z,2.72
2023-02-27T03:22:08.279Z,2.52
2023-02-27T03:25:30.051Z,2.62
2023-02-27T03:28:40.878Z,3.06
2023-02-27T03:31:51.885Z,1.57
2023-02-27T03:35:08.195Z,1.76
2023-02-27T03:42:10.455Z,4.18
2023-02-27T03:46:02.702Z,4.39
2023-02-27T03:49:17.589Z,3.48
2023-02-27T03:52:32.731Z,4.21
2023-02-27T03:55:41.925Z,4.73
2023-02-27T03:58:45.850Z,4.63
2023-02-27T04:02:01.153Z,3.77
2023-02-27T04:05:06.450Z,4.81
2023-02-27T04:08:43.197Z,5.24
2023-02-27T04:12:03.704Z,6.32
2023-02-27T04:15:33.757Z,5.18
2023-02-27T04:19:10.354Z,5.94
2023-02-27T04:22:50.967Z,6.76
2023-02-27T04:26:07.880Z,6.57
2023-02-27T04:29:23.896Z,4.98
2023-02-27T04:32:40.217Z,6.52
2023-02-27T04:36:08.789Z,7.69
2023-02-27T04:39:33.933Z,5.58
2023-02-27T04:42:47.519Z,5.75
2023-02-27T04:45:52.503Z,5.33
2023-02-27T04:49:13.851Z,5.96
2023-02-27T04:52:33.300Z,4.09
2023-02-27T04:55:44.745Z,4.42
2023-02-27T04:58:59.333Z,6.83
2023-02-27T05:02:20.243Z,7.24
2023-02-27T05:05:38.815Z,6.03
2023-02-27T05:09:25.218Z,6.52
2023-02-27T05:12:36.905Z,7.38
2023-02-27T05:15:52.049Z,7.85
2023-02-27T05:19:04.070Z,5.86
2023-02-27T05:22:37.084Z,6.77
2023-02-27T05:29:52.230Z,7.14
2023-02-27T05:32:58.719Z,5.89
2023-02-27T05:36:21.408Z,6.77
2023-02-27T05:39:39.141Z,8.37
2023-02-27T05:42:51.534Z,7.78
2023-02-27T05:46:06.724Z,8.13
2023-02-27T05:49:46.505Z,7.85
2023-02-27T05:52:54.111Z,7.93
2023-02-27T05:56:07.261Z,8.17
2023-02-27T05:59:29.546Z,8.46
2023-02-27T06:02:35.569Z,8.68
2023-02-27T06:05:42.510Z,9.38
2023-02-27T06:08:52.366Z,9.94
2023-02-27T06:11:56.404Z,9.50
2023-02-27T06:15:00.574Z,10.02
2023-02-27T06:18:05.517Z,8.40
2023-02-27T06:21:14.961Z,8.99
2023-02-27T06:24:29.587Z,8.56
2023-02-27T06:27:33.979Z,9.50
2023-02-27T06:30:38.371Z,8.16
2023-02-27T06:33:42.597Z,8.96
2023-02-27T06:36:53.452Z,7.90
2023-02-27T06:39:58.766Z,7.83
2023-02-27T06:43:04.545Z,9.41
2023-02-27T06:46:18.009Z,8.01
2023-02-27T06:49:23.766Z,8.38
2023-02-27T06:52:38.488Z,8.86
2023-02-27T06:55:42.934Z,8.75
2023-02-27T06:58:47.789Z,9.95
2023-02-27T07:01:52.165Z,9.96
2023-02-27T07:05:08.260Z,9.09
2023-02-27T07:08:22.931Z,9.92
2023-02-27T07:11:27.517Z,9.21
2023-02-27T07:14:31.900Z,10.67
2023-02-27T07:17:36.544Z,11.77
2023-02-27T07:20:40.751Z,9.49
2023-02-27T07:23:45.322Z,8.79
2023-02-27T07:26:49.747Z,9.91
2023-02-27T07:30:03.828Z,9.91
2023-02-27T07:33:08.767Z,10.05
2023-02-27T07:36:13.199Z,9.33
2023-02-27T07:39:17.152Z,9.31
2023-02-27T07:42:21.417Z,6.42
2023-02-27T07:45:36.170Z,7.34
2023-02-27T07:48:41.134Z,9.49
2023-02-27T07:51:45.598Z,8.06
2023-02-27T07:54:49.948Z,7.88
2023-02-27T07:57:59.452Z,8.25
2023-02-27T08:01:03.438Z,8.08
2023-02-27T08:04:07.401Z,6.63
2023-02-27T08:07:11.692Z,8.01
2023-02-27T08:10:17.100Z,7.77
2023-02-27T08:13:58.941Z,7.49
2023-02-27T08:17:03.244Z,9.23
2023-02-27T08:20:08.540Z,9.22
2023-02-27T08:23:12.492Z,7.83
2023-02-27T08:26:16.737Z,10.10
2023-02-27T08:29:20.471Z,9.79
2023-02-27T08:32:25.283Z,9.54
2023-02-27T08:35:31.399Z,9.07
2023-02-27T08:38:35.969Z,7.65
2023-02-27T08:41:45.572Z,9.30
2023-02-27T08:45:01.123Z,9.86
2023-02-27T08:48:10.875Z,8.31
2023-02-27T08:51:19.983Z,10.64
2023-02-27T08:54:23.891Z,9.64
2023-02-27T08:57:29.070Z,8.70
2023-02-27T09:00:33.760Z,8.56
2023-02-27T09:03:37.793Z,9.22
2023-02-27T09:06:42.229Z,8.85
2023-02-27T09:09:49.710Z,9.37
2023-02-27T09:12:54.680Z,8.83
2023-02-27T09:15:59.197Z,8.58
2023-02-27T09:19:03.247Z,9.11
2023-02-27T09:22:13.224Z,9.30
2023-02-27T09:25:20.069Z,9.05
2023-02-27T09:28:28.942Z,8.14
2023-02-27T09:31:33.951Z,7.90
2023-02-27T09:34:38.236Z,9.42
2023-02-27T09:37:52.058Z,8.35
2023-02-27T09:41:02.801Z,9.47
2023-02-27T09:44:36.482Z,9.11
2023-02-27T09:48:38.302Z,8.22
2023-02-27T09:51:46.844Z,8.31
2023-02-27T09:54:50.994Z,8.14
2023-02-27T09:58:02.551Z,9.05
2023-02-27T10:01:45.649Z,9.01
2023-02-27T10:04:58.424Z,7.47
2023-02-27T10:12:40.036Z,8.21
2023-02-27T10:15:57.825Z,8.78
2023-02-27T10:19:14.450Z,7.10
2023-02-27T10:22:26.613Z,8.40
2023-02-27T10:25:40.505Z,9.37
2023-02-27T10:28:46.297Z,8.66
2023-02-27T10:32:14.530Z,10.25
2023-02-27T10:35:29.659Z,9.98
2023-02-27T10:38:48.863Z,10.04
2023-02-27T10:41:53.236Z,8.15
2023-02-27T10:45:08.258Z,8.58
2023-02-27T10:48:14.134Z,8.58
2023-02-27T10:51:33.763Z,7.76
2023-02-27T10:54:40.714Z,7.22
2023-02-27T10:57:47.212Z,7.59
2023-02-27T11:00:59.788Z,8.31
2023-02-27T11:04:03.869Z,8.17
2023-02-27T11:07:12.599Z,7.47
2023-02-27T11:10:28.721Z,6.31
2023-02-27T11:13:39.944Z,6.29
2023-02-27T11:17:01.391Z,6.97
2023-02-27T11:20:30.439Z,7.66
2023-02-27T11:24:01.727Z,7.35
2023-02-27T11:27:29.475Z,6.81
2023-02-27T11:30:38.241Z,6.79
2023-02-27T11:33:55.033Z,6.75
2023-02-27T11:37:23.730Z,5.87
2023-02-27T11:40:34.845Z,5.43
2023-02-27T11:43:47.787Z,6.61
2023-02-27T11:46:52.216Z,6.31
2023-02-27T11:49:59.435Z,6.50
2023-02-27T11:53:14.866Z,6.30
2023-02-27T11:57:10.961Z,5.53
2023-02-27T12:00:33.519Z,5.13
2023-02-27T12:04:05.091Z,5.24
2023-02-27T12:07:38.773Z,5.49
2023-02-27T12:11:04.589Z,5.64
2023-02-27T12:14:23.764Z,5.40
2023-02-27T12:17:53.993Z,5.08
2023-02-27T12:21:16.103Z,5.21
2023-02-27T12:24:41.231Z,4.45
2023-02-27T12:28:18.783Z,4.51
2023-02-27T12:31:36.410Z,4.14
2023-02-27T12:34:46.988Z,4.42
2023-02-27T12:37:51.837Z,3.61
2023-02-27T12:41:17.658Z,4.03
2023-02-27T12:45:01.589Z,3.54
2023-02-27T12:48:13.932Z,3.36
2023-02-27T12:51:56.273Z,3.79
2023-02-27T12:55:15.677Z,3.59
2023-02-27T12:58:34.737Z,3.60
2023-02-27T13:02:00.136Z,3.62
2023-02-27T13:09:10.203Z,2.95
2023-02-27T13:12:47.060Z,3.59
2023-02-27T13:15:54.541Z,4.45
2023-02-27T13:19:21.224Z,4.32
2023-02-27T13:22:54.538Z,3.61
2023-02-27T13:26:01.769Z,3.76
2023-02-27T13:29:12.874Z,3.93
2023-02-27T13:32:43.129Z,3.41
2023-02-27T13:36:11.012Z,3.11
2023-02-27T13:39:39.354Z,3.98
2023-02-27T13:42:53.285Z,2.61
2023-02-27T13:46:02.733Z,3.64
2023-02-27T13:49:06.658Z,2.95
2023-02-27T13:52:30.285Z,2.93
2023-02-27T13:55:39.172Z,3.30
2023-02-27T13:58:48.936Z,3.39
2023-02-27T14:02:12.612Z,3.07
2023-02-27T14:05:31.526Z,2.40
2023-02-27T14:08:48.589Z,3.11
2023-02-27T14:12:06.766Z,3.25
2023-02-27T14:15:26.898Z,3.41
2023-02-27T14:18:51.855Z,2.68
2023-02-27T14:22:03.619Z,4.01
2023-02-27T14:25:31.004Z,2.74
2023-02-27T14:28:56.284Z,4.55
2023-02-27T14:32:08.330Z,3.91
2023-02-27T14:35:16.796Z,4.07
2023-02-27T14:38:28.481Z,3.82
2023-02-27T14:42:01.908Z,4.05
2023-02-27T14:45:13.197Z,3.97
2023-02-27T14:48:27.856Z,3.39
2023-02-27T14:51:38.328Z,4.11
2023-02-27T14:54:43.608Z,4.51
2023-02-27T14:58:20.060Z,4.04
2023-02-27T15:01:26.068Z,3.50
2023-02-27T15:04:34.005Z,4.14
2023-02-27T15:07:40.479Z,4.32
2023-02-27T15:10:46.163Z,3.86
2023-02-27T15:14:06.841Z,3.75
2023-02-27T15:21:06.091Z,2.12
2023-02-27T15:24:25.216Z,2.21
2023-02-27T15:27:30.538Z,2.62
2023-02-27T15:30:36.214Z,3.12
2023-02-27T15:33:45.566Z,3.75
2023-02-27T15:36:56.685Z,3.23
2023-02-27T15:40:02.476Z,3.98
2023-02-27T15:43:07.151Z,3.57
2023-02-27T15:46:16.658Z,3.81
2023-02-27T15:49:24.059Z,2.42
2023-02-27T15:52:34.178Z,2.43
2023-02-27T15:56:00.131Z,2.70
2023-02-27T15:59:05.816Z,2.43
2023-02-27T16:02:20.963Z,2.76
2023-02-27T16:05:35.448Z,2.71
2023-02-27T16:08:47.066Z,2.55
2023-02-27T16:12:37.450Z,2.35
2023-02-27T16:15:45.083Z,2.46
2023-02-27T16:18:54.595Z,2.34
2023-02-27T16:22:15.294Z,2.66
2023-02-27T16:25:20.885Z,2.95
2023-02-27T16:28:37.680Z,2.96
2023-02-27T16:31:53.520Z,2.59
2023-02-27T16:35:17.761Z,2.55
2023-02-27T16:38:23.146Z,1.83
2023-02-27T16:41:37.111Z,2.20
2023-02-27T16:44:41.077Z,2.36
2023-02-27T16:47:48.415Z,2.04
2023-02-27T16:50:52.571Z,2.71
2023-02-27T16:54:11.627Z,2.70
2023-02-27T16:57:18.132Z,2.17
2023-02-27T17:00:26.981Z,2.46
2023-02-27T17:03:31.666Z,2.44
2023-02-27T17:06:35.793Z,1.12
2023-02-27T17:09:40.130Z,1.95
2023-02-27T17:12:44.830Z,2.36
2023-02-27T17:15:48.897Z,2.21
2023-02-27T17:18:53.010Z,2.19
2023-02-27T17:22:01.642Z,2.00
2023-02-27T17:25:13.371Z,1.85
2023-02-27T17:28:17.783Z,1.47
2023-02-27T17:31:23.369Z,1.11
2023-02-27T17:34:27.940Z,2.02
2023-02-27T17:37:42.189Z,2.35
2023-02-27T17:40:52.372Z,2.24
2023-02-27T17:43:57.701Z,1.69
2023-02-27T17:47:02.858Z,2.18
2023-02-27T17:50:15.398Z,1.78
2023-02-27T17:53:26.804Z,2.01
2023-02-27T17:56:31.248Z,1.98
2023-02-27T17:59:35.323Z,2.66
2023-02-27T18:02:39.902Z,1.70
2023-02-27T18:05:53.247Z,1.14
2023-02-27T18:09:07.207Z,2.48
2023-02-27T18:12:15.368Z,2.43
2023-02-27T18:15:19.398Z,1.99
2023-02-27T18:18:36.863Z,2.62
2023-02-27T18:21:52.764Z,2.05
2023-02-27T18:25:02.041Z,2.24
2023-02-27T18:28:08.330Z,2.18
2023-02-27T18:31:25.248Z,2.26
2023-02-27T18:34:41.099Z,2.91
2023-02-27T18:37:46.114Z,1.86
2023-02-27T18:40:55.542Z,2.01
2023-02-27T18:44:01.628Z,2.50
2023-02-27T18:47:05.624Z,2.21
2023-02-27T18:50:20.823Z,4.27
2023-02-27T18:53:30.036Z,2.73
2023-02-27T18:56:39.232Z,3.36
2023-02-27T18:59:48.687Z,2.66
2023-02-27T19:02:53.059Z,2.58
2023-02-27T19:05:57.260Z,3.31
2023-02-27T19:09:01.580Z,2.27
2023-02-27T19:12:13.491Z,2.08
2023-02-27T19:15:27.950Z,2.71
2023-02-27T19:18:44.014Z,2.90
2023-02-27T19:21:52.922Z,3.18
2023-02-27T19:24:57.901Z,2.64
2023-02-27T19:28:03.029Z,2.95
2023-02-27T19:31:16.010Z,2.91
2023-02-27T19:34:20.219Z,3.41
2023-02-27T19:37:28.869Z,3.56
2023-02-27T19:40:37.571Z,3.07
2023-02-27T19:43:52.893Z,3.20
2023-02-27T19:46:57.102Z,2.87
2023-02-27T19:50:01.041Z,2.06
2023-02-27T19:53:08.785Z,1.85
2023-02-27T19:56:15.925Z,2.53
2023-02-27T19:59:25.372Z,2.47
2023-02-27T20:02:29.589Z,2.42
2023-02-27T20:05:45.792Z,2.85
2023-02-27T20:08:59.410Z,3.52
2023-02-27T20:12:03.566Z,4.08
2023-02-27T20:15:11.877Z,4.00
2023-02-27T20:18:20.909Z,3.19
2023-02-27T20:21:27.210Z,3.49
2023-02-27T20:24:35.806Z,4.31
2023-02-27T20:27:45.321Z,4.20
2023-02-27T20:30:49.670Z,4.51
2023-02-27T20:33:53.640Z,4.32
2023-02-27T20:36:58.154Z,4.32
2023-02-27T20:40:04.627Z,4.27
2023-02-27T20:43:08.218Z,4.71
2023-02-27T20:46:20.089Z,4.93
2023-02-27T20:49:28.814Z,4.71
2023-02-27T20:52:33.807Z,4.84
2023-02-27T20:55:38.189Z,4.86
2023-02-27T20:58:42.698Z,4.96
2023-02-27T21:01:51.795Z,5.37
2023-02-27T21:04:58.775Z,5.16
2023-02-27T21:08:02.800Z,5.06
2023-02-27T21:11:28.052Z,5.04
2023-02-27T21:14:32.602Z,5.06
2023-02-27T21:17:36.789Z,5.15
2023-02-27T21:20:46.617Z,4.93
2023-02-27T21:24:02.385Z,5.41
2023-02-27T21:27:06.687Z,5.54
2023-02-27T21:30:11.431Z,5.49
2023-02-27T21:33:15.686Z,5.33
2023-02-27T21:36:24.432Z,5.11
2023-02-27T21:39:30.060Z,5.35
2023-02-27T21:42:44.370Z,5.89
2023-02-27T21:45:52.084Z,6.51
2023-02-27T21:48:58.886Z,6.22
2023-02-27T21:52:03.577Z,6.07
2023-02-27T21:55:08.647Z,7.05
2023-02-27T21:58:12.510Z,5.84
2023-02-27T22:01:28.735Z,5.76
2023-02-27T22:04:34.850Z,6.36
2023-02-27T22:07:43.720Z,7.14
2023-02-27T22:11:00.065Z,6.25
2023-02-27T22:14:10.367Z,7.21
2023-02-27T22:17:15.882Z,5.70
2023-02-27T22:20:20.230Z,6.27
2023-02-27T22:23:24.245Z,7.43
2023-02-27T22:26:39.468Z,7.86
2023-02-27T22:29:43.485Z,7.53
2023-02-27T22:32:53.081Z,7.24
2023-02-27T22:35:57.408Z,6.99
2023-02-27T22:39:02.105Z,7.26
2023-02-27T22:42:06.637Z,6.97
2023-02-27T22:45:10.910Z,7.11
2023-02-27T22:48:15.594Z,7.36
2023-02-27T22:51:19.770Z,6.61
2023-02-27T22:54:29.836Z,7.29
2023-02-27T22:57:44.048Z,7.14
2023-02-27T23:00:48.620Z,6.50
2023-02-27T23:04:06.201Z,5.95
2023-02-27T23:07:15.332Z,7.61
2023-02-27T23:10:19.094Z,7.86
2023-02-27T23:13:23.687Z,7.17
2023-02-27T23:16:37.827Z,6.72
2023-02-27T23:19:55.047Z,7.39
2023-02-27T23:22:59.257Z,7.49
2023-02-27T23:26:08.580Z,7.81
2023-02-27T23:29:19.972Z,7.12
2023-02-27T23:32:25.096Z,7.57
2023-02-27T23:35:29.774Z,6.82
2023-02-27T23:38:46.966Z,7.28
2023-02-27T23:41:52.343Z,6.40
2023-02-27T23:45:16.893Z,6.86
2023-02-27T23:48:22.379Z,7.47
2023-02-27T23:51:37.436Z,7.85
2023-02-27T23:54:46.064Z,7.77
2023-02-27T23:57:54.649Z,7.95
